sensor_id;sensor_type;location;lat;lon;timestamp;temperature;humidity
27413;DHT22;14871;52.702;5.230;2022-10-16T00:01:10;15.40;99.90
27413;DHT22;14871;52.702;5.230;2022-10-16T00:03:37;15.50;99.90
27413;DHT22;14871;52.702;5.230;2022-10-16T00:06:03;15.50;99.90
27413;DHT22;14871;52.702;5.230;2022-10-16T00:08:30;15.60;99.90
27413;DHT22;14871;52.702;5.230;2022-10-16T00:11:04;15.60;99.90
27413;DHT22;14871;52.702;5.230;2022-10-16T00:13:30;15.60;99.90
27413;DHT22;14871;52.702;5.230;2022-10-16T00:15:57;15.50;99.90
27413;DHT22;14871;52.702;5.230;2022-10-16T00:18:23;15.60;99.90
27413;DHT22;14871;52.702;5.230;2022-10-16T00:20:49;15.50;99.90
27413;DHT22;14871;52.702;5.230;2022-10-16T00:23:15;15.50;99.90
27413;DHT22;14871;52.702;5.230;2022-10-16T00:25:40;15.50;99.90
27413;DHT22;14871;52.702;5.230;2022-10-16T00:28:06;15.60;99.90
27413;DHT22;14871;52.702;5.230;2022-10-16T00:30:32;15.60;99.90
27413;DHT22;14871;52.702;5.230;2022-10-16T00:32:57;15.60;99.90
27413;DHT22;14871;52.702;5.230;2022-10-16T00:35:23;15.60;99.90
27413;DHT22;14871;52.702;5.230;2022-10-16T00:37:49;15.50;99.90
27413;DHT22;14871;52.702;5.230;2022-10-16T00:40:15;15.70;99.90
27413;DHT22;14871;52.702;5.230;2022-10-16T00:42:40;15.80;99.90
27413;DHT22;14871;52.702;5.230;2022-10-16T00:45:08;15.70;99.90
27413;DHT22;14871;52.702;5.230;2022-10-16T00:47:42;15.70;99.90
27413;DHT22;14871;52.702;5.230;2022-10-16T00:50:31;15.60;99.90
27413;DHT22;14871;52.702;5.230;2022-10-16T00:52:58;15.80;99.90
27413;DHT22;14871;52.702;5.230;2022-10-16T00:55:26;15.80;99.90
27413;DHT22;14871;52.702;5.230;2022-10-16T00:57:53;15.70;99.90
27413;DHT22;14871;52.702;5.230;2022-10-16T01:00:23;15.70;99.90
27413;DHT22;14871;52.702;5.230;2022-10-16T01:02:57;15.50;99.90
27413;DHT22;14871;52.702;5.230;2022-10-16T01:05:33;15.60;99.90
27413;DHT22;14871;52.702;5.230;2022-10-16T01:08:44;15.60;99.90
27413;DHT22;14871;52.702;5.230;2022-10-16T01:13:43;15.70;99.90
27413;DHT22;14871;52.702;5.230;2022-10-16T01:18:51;15.50;99.90
27413;DHT22;14871;52.702;5.230;2022-10-16T01:22:05;15.40;99.90
27413;DHT22;14871;52.702;5.230;2022-10-16T01:27:14;15.50;99.90
27413;DHT22;14871;52.702;5.230;2022-10-16T01:32:36;15.40;99.90
27413;DHT22;14871;52.702;5.230;2022-10-16T01:35:18;15.40;99.90
27413;DHT22;14871;52.702;5.230;2022-10-16T01:40:16;15.50;99.90
27413;DHT22;14871;52.702;5.230;2022-10-16T01:42:48;15.50;99.90
27413;DHT22;14871;52.702;5.230;2022-10-16T01:45:17;15.50;99.90
27413;DHT22;14871;52.702;5.230;2022-10-16T01:47:45;15.50;99.90
27413;DHT22;14871;52.702;5.230;2022-10-16T01:50:12;15.40;99.90
27413;DHT22;14871;52.702;5.230;2022-10-16T01:52:43;15.50;99.90
27413;DHT22;14871;52.702;5.230;2022-10-16T01:55:12;15.40;99.90
27413;DHT22;14871;52.702;5.230;2022-10-16T01:57:42;15.70;99.90
27413;DHT22;14871;52.702;5.230;2022-10-16T02:00:12;15.50;99.90
27413;DHT22;14871;52.702;5.230;2022-10-16T02:02:43;15.30;99.90
27413;DHT22;14871;52.702;5.230;2022-10-16T02:05:28;15.20;99.90
27413;DHT22;14871;52.702;5.230;2022-10-16T02:07:56;15.30;99.90
27413;DHT22;14871;52.702;5.230;2022-10-16T02:10:22;15.50;99.90
27413;DHT22;14871;52.702;5.230;2022-10-16T02:12:56;15.40;99.90
27413;DHT22;14871;52.702;5.230;2022-10-16T02:15:24;15.30;99.90
27413;DHT22;14871;52.702;5.230;2022-10-16T02:17:49;15.30;99.90
27413;DHT22;14871;52.702;5.230;2022-10-16T02:20:15;15.50;99.90
27413;DHT22;14871;52.702;5.230;2022-10-16T02:22:47;15.30;99.90
27413;DHT22;14871;52.702;5.230;2022-10-16T02:25:37;15.20;99.90
27413;DHT22;14871;52.702;5.230;2022-10-16T02:28:22;15.30;99.90
27413;DHT22;14871;52.702;5.230;2022-10-16T02:30:53;15.40;99.90
27413;DHT22;14871;52.702;5.230;2022-10-16T02:33:21;15.60;99.90
27413;DHT22;14871;52.702;5.230;2022-10-16T02:35:49;15.30;99.90
27413;DHT22;14871;52.702;5.230;2022-10-16T02:38:16;15.40;99.90
27413;DHT22;14871;52.702;5.230;2022-10-16T02:40:42;15.20;99.90
27413;DHT22;14871;52.702;5.230;2022-10-16T02:43:08;15.40;99.90
27413;DHT22;14871;52.702;5.230;2022-10-16T02:45:35;15.50;99.90
27413;DHT22;14871;52.702;5.230;2022-10-16T02:48:01;15.30;99.90
27413;DHT22;14871;52.702;5.230;2022-10-16T02:50:26;15.40;99.90
27413;DHT22;14871;52.702;5.230;2022-10-16T02:52:52;15.40;99.90
27413;DHT22;14871;52.702;5.230;2022-10-16T02:55:17;15.30;99.90
27413;DHT22;14871;52.702;5.230;2022-10-16T02:57:43;15.30;99.90
27413;DHT22;14871;52.702;5.230;2022-10-16T03:00:13;15.20;99.90
27413;DHT22;14871;52.702;5.230;2022-10-16T03:02:38;15.30;99.90
27413;DHT22;14871;52.702;5.230;2022-10-16T03:05:04;15.30;99.90
27413;DHT22;14871;52.702;5.230;2022-10-16T03:07:30;15.30;99.90
27413;DHT22;14871;52.702;5.230;2022-10-16T03:09:56;15.20;99.90
27413;DHT22;14871;52.702;5.230;2022-10-16T03:12:21;15.40;99.90
27413;DHT22;14871;52.702;5.230;2022-10-16T03:14:47;15.40;99.90
27413;DHT22;14871;52.702;5.230;2022-10-16T03:17:13;15.40;99.90
27413;DHT22;14871;52.702;5.230;2022-10-16T03:19:39;15.30;99.90
27413;DHT22;14871;52.702;5.230;2022-10-16T03:22:05;15.30;99.90
27413;DHT22;14871;52.702;5.230;2022-10-16T03:24:30;15.30;99.90
27413;DHT22;14871;52.702;5.230;2022-10-16T03:26:56;15.30;99.90
27413;DHT22;14871;52.702;5.230;2022-10-16T03:29:22;15.20;99.90
27413;DHT22;14871;52.702;5.230;2022-10-16T03:31:47;15.20;99.90
27413;DHT22;14871;52.702;5.230;2022-10-16T03:34:15;15.30;99.90
27413;DHT22;14871;52.702;5.230;2022-10-16T03:36:40;15.30;99.90
27413;DHT22;14871;52.702;5.230;2022-10-16T03:39:06;15.40;99.90
27413;DHT22;14871;52.702;5.230;2022-10-16T03:41:31;15.40;99.90
27413;DHT22;14871;52.702;5.230;2022-10-16T03:43:57;15.50;99.90
27413;DHT22;14871;52.702;5.230;2022-10-16T03:46:22;15.40;99.90
27413;DHT22;14871;52.702;5.230;2022-10-16T03:48:48;15.50;99.90
27413;DHT22;14871;52.702;5.230;2022-10-16T03:51:13;15.50;99.90
27413;DHT22;14871;52.702;5.230;2022-10-16T03:53:39;15.60;99.90
27413;DHT22;14871;52.702;5.230;2022-10-16T03:56:05;15.50;99.90
27413;DHT22;14871;52.702;5.230;2022-10-16T03:58:31;15.50;99.90
27413;DHT22;14871;52.702;5.230;2022-10-16T04:00:56;15.20;99.90
27413;DHT22;14871;52.702;5.230;2022-10-16T04:03:22;15.20;99.90
27413;DHT22;14871;52.702;5.230;2022-10-16T04:05:48;15.20;99.90
27413;DHT22;14871;52.702;5.230;2022-10-16T04:08:14;15.30;99.90
27413;DHT22;14871;52.702;5.230;2022-10-16T04:10:39;15.30;99.90
27413;DHT22;14871;52.702;5.230;2022-10-16T04:13:07;15.20;99.90
27413;DHT22;14871;52.702;5.230;2022-10-16T04:15:33;15.20;99.90
27413;DHT22;14871;52.702;5.230;2022-10-16T04:17:59;15.30;99.90
27413;DHT22;14871;52.702;5.230;2022-10-16T04:20:24;15.40;99.90
27413;DHT22;14871;52.702;5.230;2022-10-16T04:22:50;15.30;99.90
27413;DHT22;14871;52.702;5.230;2022-10-16T04:25:16;15.20;99.90
27413;DHT22;14871;52.702;5.230;2022-10-16T04:27:41;15.30;99.90
27413;DHT22;14871;52.702;5.230;2022-10-16T04:30:07;15.00;99.90
27413;DHT22;14871;52.702;5.230;2022-10-16T04:32:33;15.10;99.90
27413;DHT22;14871;52.702;5.230;2022-10-16T04:34:58;15.20;99.90
27413;DHT22;14871;52.702;5.230;2022-10-16T04:37:25;15.30;99.90
27413;DHT22;14871;52.702;5.230;2022-10-16T04:39:51;15.10;99.90
27413;DHT22;14871;52.702;5.230;2022-10-16T04:42:16;15.20;99.90
27413;DHT22;14871;52.702;5.230;2022-10-16T04:44:42;15.30;99.90
27413;DHT22;14871;52.702;5.230;2022-10-16T04:47:08;15.10;99.90
27413;DHT22;14871;52.702;5.230;2022-10-16T04:49:33;15.30;99.90
27413;DHT22;14871;52.702;5.230;2022-10-16T04:51:59;15.30;99.90
27413;DHT22;14871;52.702;5.230;2022-10-16T04:54:24;15.30;99.90
27413;DHT22;14871;52.702;5.230;2022-10-16T04:56:50;15.10;99.90
27413;DHT22;14871;52.702;5.230;2022-10-16T04:59:18;15.00;99.90
27413;DHT22;14871;52.702;5.230;2022-10-16T05:01:44;15.30;99.90
27413;DHT22;14871;52.702;5.230;2022-10-16T05:04:10;15.30;99.90
27413;DHT22;14871;52.702;5.230;2022-10-16T05:06:37;15.20;99.90
27413;DHT22;14871;52.702;5.230;2022-10-16T05:09:04;15.10;99.90
27413;DHT22;14871;52.702;5.230;2022-10-16T05:11:30;15.00;99.90
27413;DHT22;14871;52.702;5.230;2022-10-16T05:13:55;14.90;99.90
27413;DHT22;14871;52.702;5.230;2022-10-16T05:16:21;15.00;99.90
27413;DHT22;14871;52.702;5.230;2022-10-16T05:18:46;15.00;99.90
27413;DHT22;14871;52.702;5.230;2022-10-16T05:21:12;15.10;99.90
27413;DHT22;14871;52.702;5.230;2022-10-16T05:23:38;15.20;99.90
27413;DHT22;14871;52.702;5.230;2022-10-16T05:26:03;15.10;99.90
27413;DHT22;14871;52.702;5.230;2022-10-16T05:28:29;15.10;99.90
27413;DHT22;14871;52.702;5.230;2022-10-16T05:30:56;15.20;99.90
27413;DHT22;14871;52.702;5.230;2022-10-16T05:33:23;15.20;99.90
27413;DHT22;14871;52.702;5.230;2022-10-16T05:35:49;15.10;99.90
27413;DHT22;14871;52.702;5.230;2022-10-16T05:38:16;15.10;99.90
27413;DHT22;14871;52.702;5.230;2022-10-16T05:40:42;15.00;99.90
27413;DHT22;14871;52.702;5.230;2022-10-16T05:43:07;15.00;99.90
27413;DHT22;14871;52.702;5.230;2022-10-16T05:45:33;15.10;99.90
27413;DHT22;14871;52.702;5.230;2022-10-16T05:47:59;15.20;99.90
27413;DHT22;14871;52.702;5.230;2022-10-16T05:50:25;15.20;99.90
27413;DHT22;14871;52.702;5.230;2022-10-16T05:52:51;15.30;99.90
27413;DHT22;14871;52.702;5.230;2022-10-16T05:55:16;15.20;99.90
27413;DHT22;14871;52.702;5.230;2022-10-16T05:57:42;15.40;99.90
27413;DHT22;14871;52.702;5.230;2022-10-16T06:00:08;15.20;99.90
27413;DHT22;14871;52.702;5.230;2022-10-16T06:02:34;15.20;99.90
27413;DHT22;14871;52.702;5.230;2022-10-16T06:05:00;15.30;99.90
27413;DHT22;14871;52.702;5.230;2022-10-16T06:07:25;15.00;99.90
27413;DHT22;14871;52.702;5.230;2022-10-16T06:09:52;15.10;99.90
27413;DHT22;14871;52.702;5.230;2022-10-16T06:12:18;15.10;99.90
27413;DHT22;14871;52.702;5.230;2022-10-16T06:14:45;15.10;99.90
27413;DHT22;14871;52.702;5.230;2022-10-16T06:17:12;15.20;99.90
27413;DHT22;14871;52.702;5.230;2022-10-16T06:19:38;15.30;99.90
27413;DHT22;14871;52.702;5.230;2022-10-16T06:22:04;15.30;99.90
27413;DHT22;14871;52.702;5.230;2022-10-16T06:24:30;15.20;99.90
27413;DHT22;14871;52.702;5.230;2022-10-16T06:26:55;15.10;99.90
27413;DHT22;14871;52.702;5.230;2022-10-16T06:29:21;15.10;99.90
27413;DHT22;14871;52.702;5.230;2022-10-16T06:31:46;15.30;99.90
27413;DHT22;14871;52.702;5.230;2022-10-16T06:34:12;15.20;99.90
27413;DHT22;14871;52.702;5.230;2022-10-16T06:36:38;15.20;99.90
27413;DHT22;14871;52.702;5.230;2022-10-16T06:39:05;15.10;99.90
27413;DHT22;14871;52.702;5.230;2022-10-16T06:41:32;15.30;99.90
27413;DHT22;14871;52.702;5.230;2022-10-16T06:43:57;15.30;99.90
27413;DHT22;14871;52.702;5.230;2022-10-16T06:46:24;15.30;99.90
27413;DHT22;14871;52.702;5.230;2022-10-16T06:48:50;15.10;99.90
27413;DHT22;14871;52.702;5.230;2022-10-16T06:51:18;15.10;99.90
27413;DHT22;14871;52.702;5.230;2022-10-16T06:53:49;15.10;99.90
27413;DHT22;14871;52.702;5.230;2022-10-16T06:56:20;15.40;99.90
27413;DHT22;14871;52.702;5.230;2022-10-16T06:58:47;15.50;99.90
27413;DHT22;14871;52.702;5.230;2022-10-16T07:01:14;15.30;99.90
27413;DHT22;14871;52.702;5.230;2022-10-16T07:03:41;15.20;99.90
27413;DHT22;14871;52.702;5.230;2022-10-16T07:06:09;15.20;99.90
27413;DHT22;14871;52.702;5.230;2022-10-16T07:08:36;15.20;99.90
27413;DHT22;14871;52.702;5.230;2022-10-16T07:11:04;15.40;99.90
27413;DHT22;14871;52.702;5.230;2022-10-16T07:13:32;15.40;99.90
27413;DHT22;14871;52.702;5.230;2022-10-16T07:15:58;15.20;99.90
27413;DHT22;14871;52.702;5.230;2022-10-16T07:18:29;15.30;99.90
27413;DHT22;14871;52.702;5.230;2022-10-16T07:21:12;15.50;99.90
27413;DHT22;14871;52.702;5.230;2022-10-16T07:23:39;15.30;99.90
27413;DHT22;14871;52.702;5.230;2022-10-16T07:26:05;15.10;99.90
27413;DHT22;14871;52.702;5.230;2022-10-16T07:28:32;15.20;99.90
27413;DHT22;14871;52.702;5.230;2022-10-16T07:31:05;15.30;99.90
27413;DHT22;14871;52.702;5.230;2022-10-16T07:33:32;15.40;99.90
27413;DHT22;14871;52.702;5.230;2022-10-16T07:35:58;15.40;99.90
27413;DHT22;14871;52.702;5.230;2022-10-16T07:38:24;15.50;99.90
27413;DHT22;14871;52.702;5.230;2022-10-16T07:40:59;15.40;99.90
27413;DHT22;14871;52.702;5.230;2022-10-16T07:43:25;15.40;99.90
27413;DHT22;14871;52.702;5.230;2022-10-16T07:45:51;15.70;99.90
27413;DHT22;14871;52.702;5.230;2022-10-16T07:48:17;15.90;99.90
27413;DHT22;14871;52.702;5.230;2022-10-16T07:50:44;15.80;99.90
27413;DHT22;14871;52.702;5.230;2022-10-16T07:53:10;15.90;99.90
27413;DHT22;14871;52.702;5.230;2022-10-16T07:55:36;16.10;99.90
27413;DHT22;14871;52.702;5.230;2022-10-16T07:58:02;16.10;99.90
27413;DHT22;14871;52.702;5.230;2022-10-16T08:00:28;15.90;99.90
27413;DHT22;14871;52.702;5.230;2022-10-16T08:02:53;16.10;99.90
27413;DHT22;14871;52.702;5.230;2022-10-16T08:05:19;16.10;99.90
27413;DHT22;14871;52.702;5.230;2022-10-16T08:07:49;16.40;99.90
27413;DHT22;14871;52.702;5.230;2022-10-16T08:10:17;16.50;99.90
27413;DHT22;14871;52.702;5.230;2022-10-16T08:12:43;16.70;99.90
27413;DHT22;14871;52.702;5.230;2022-10-16T08:15:09;16.90;99.90
27413;DHT22;14871;52.702;5.230;2022-10-16T08:17:35;17.20;99.90
27413;DHT22;14871;52.702;5.230;2022-10-16T08:20:00;17.30;99.90
27413;DHT22;14871;52.702;5.230;2022-10-16T08:22:27;17.30;99.90
27413;DHT22;14871;52.702;5.230;2022-10-16T08:24:52;17.50;99.90
27413;DHT22;14871;52.702;5.230;2022-10-16T08:27:18;17.80;99.90
27413;DHT22;14871;52.702;5.230;2022-10-16T08:29:43;18.00;99.90
27413;DHT22;14871;52.702;5.230;2022-10-16T08:32:09;18.20;99.90
27413;DHT22;14871;52.702;5.230;2022-10-16T08:34:34;18.50;99.90
27413;DHT22;14871;52.702;5.230;2022-10-16T08:37:00;18.80;99.90
27413;DHT22;14871;52.702;5.230;2022-10-16T08:39:26;19.00;99.90
27413;DHT22;14871;52.702;5.230;2022-10-16T08:44:59;19.00;99.90
27413;DHT22;14871;52.702;5.230;2022-10-16T08:47:40;19.10;99.90
27413;DHT22;14871;52.702;5.230;2022-10-16T08:50:14;19.40;99.90
27413;DHT22;14871;52.702;5.230;2022-10-16T08:52:44;19.30;99.90
27413;DHT22;14871;52.702;5.230;2022-10-16T08:57:58;19.30;99.90
27413;DHT22;14871;52.702;5.230;2022-10-16T09:00:24;19.40;99.90
27413;DHT22;14871;52.702;5.230;2022-10-16T09:03:16;19.50;99.90
27413;DHT22;14871;52.702;5.230;2022-10-16T09:06:07;19.80;99.90
27413;DHT22;14871;52.702;5.230;2022-10-16T09:11:47;20.40;99.90
27413;DHT22;14871;52.702;5.230;2022-10-16T09:17:01;21.10;99.90
27413;DHT22;14871;52.702;5.230;2022-10-16T09:19:38;21.30;99.90
27413;DHT22;14871;52.702;5.230;2022-10-16T09:22:14;21.40;98.70
27413;DHT22;14871;52.702;5.230;2022-10-16T09:24:40;21.00;99.00
27413;DHT22;14871;52.702;5.230;2022-10-16T09:27:10;21.00;99.50
27413;DHT22;14871;52.702;5.230;2022-10-16T09:29:35;20.90;99.90
27413;DHT22;14871;52.702;5.230;2022-10-16T09:32:11;21.00;99.60
27413;DHT22;14871;52.702;5.230;2022-10-16T09:34:41;21.40;99.70
27413;DHT22;14871;52.702;5.230;2022-10-16T09:37:14;21.50;98.60
27413;DHT22;14871;52.702;5.230;2022-10-16T09:39:51;21.60;98.60
27413;DHT22;14871;52.702;5.230;2022-10-16T09:42:21;21.70;99.00
27413;DHT22;14871;52.702;5.230;2022-10-16T09:44:52;21.90;97.60
27413;DHT22;14871;52.702;5.230;2022-10-16T09:47:21;22.40;95.40
27413;DHT22;14871;52.702;5.230;2022-10-16T09:49:56;22.80;92.80
27413;DHT22;14871;52.702;5.230;2022-10-16T09:52:25;23.20;90.40
27413;DHT22;14871;52.702;5.230;2022-10-16T09:54:56;23.30;89.80
27413;DHT22;14871;52.702;5.230;2022-10-16T09:57:22;23.40;86.10
27413;DHT22;14871;52.702;5.230;2022-10-16T09:59:53;23.70;84.20
27413;DHT22;14871;52.702;5.230;2022-10-16T10:02:31;23.60;84.20
27413;DHT22;14871;52.702;5.230;2022-10-16T10:04:59;23.80;80.50
27413;DHT22;14871;52.702;5.230;2022-10-16T10:07:31;23.60;79.80
27413;DHT22;14871;52.702;5.230;2022-10-16T10:10:00;23.30;80.60
27413;DHT22;14871;52.702;5.230;2022-10-16T10:12:31;23.30;82.20
27413;DHT22;14871;52.702;5.230;2022-10-16T10:15:10;23.50;81.70
27413;DHT22;14871;52.702;5.230;2022-10-16T10:17:53;23.90;79.40
27413;DHT22;14871;52.702;5.230;2022-10-16T10:20:29;24.00;80.30
27413;DHT22;14871;52.702;5.230;2022-10-16T10:22:56;24.40;74.90
27413;DHT22;14871;52.702;5.230;2022-10-16T10:31:27;24.60;73.10
27413;DHT22;14871;52.702;5.230;2022-10-16T10:46:02;24.80;73.80
27413;DHT22;14871;52.702;5.230;2022-10-16T10:48:38;25.20;74.10
27413;DHT22;14871;52.702;5.230;2022-10-16T10:51:13;25.60;72.30
27413;DHT22;14871;52.702;5.230;2022-10-16T10:54:02;25.80;70.30
27413;DHT22;14871;52.702;5.230;2022-10-16T10:56:58;25.60;70.60
27413;DHT22;14871;52.702;5.230;2022-10-16T10:59:55;25.50;72.30
27413;DHT22;14871;52.702;5.230;2022-10-16T11:02:41;26.00;71.10
27413;DHT22;14871;52.702;5.230;2022-10-16T11:08:00;26.40;68.40
27413;DHT22;14871;52.702;5.230;2022-10-16T11:10:33;26.30;65.70
27413;DHT22;14871;52.702;5.230;2022-10-16T11:13:23;25.90;68.60
27413;DHT22;14871;52.702;5.230;2022-10-16T11:15:53;25.90;66.60
27413;DHT22;14871;52.702;5.230;2022-10-16T11:18:52;25.70;68.00
27413;DHT22;14871;52.702;5.230;2022-10-16T11:21:21;25.20;67.90
27413;DHT22;14871;52.702;5.230;2022-10-16T11:23:56;25.10;70.40
27413;DHT22;14871;52.702;5.230;2022-10-16T11:26:28;25.30;68.90
27413;DHT22;14871;52.702;5.230;2022-10-16T11:28:56;25.40;68.10
27413;DHT22;14871;52.702;5.230;2022-10-16T11:34:09;25.40;64.80
27413;DHT22;14871;52.702;5.230;2022-10-16T11:37:02;25.60;63.80
27413;DHT22;14871;52.702;5.230;2022-10-16T11:39:31;25.60;64.50
27413;DHT22;14871;52.702;5.230;2022-10-16T11:42:02;25.50;65.30
27413;DHT22;14871;52.702;5.230;2022-10-16T11:50:36;26.00;66.10
27413;DHT22;14871;52.702;5.230;2022-10-16T11:53:15;26.20;64.60
27413;DHT22;14871;52.702;5.230;2022-10-16T11:55:44;26.40;63.90
27413;DHT22;14871;52.702;5.230;2022-10-16T12:03:33;26.10;65.40
27413;DHT22;14871;52.702;5.230;2022-10-16T12:08:44;26.20;64.10
27413;DHT22;14871;52.702;5.230;2022-10-16T12:16:51;25.60;66.90
27413;DHT22;14871;52.702;5.230;2022-10-16T12:19:19;25.30;67.40
27413;DHT22;14871;52.702;5.230;2022-10-16T12:21:45;25.30;67.40
27413;DHT22;14871;52.702;5.230;2022-10-16T12:24:41;25.80;65.80
27413;DHT22;14871;52.702;5.230;2022-10-16T12:27:30;25.80;66.00
27413;DHT22;14871;52.702;5.230;2022-10-16T12:30:01;25.80;65.20
27413;DHT22;14871;52.702;5.230;2022-10-16T12:34:59;25.70;64.80
27413;DHT22;14871;52.702;5.230;2022-10-16T12:37:35;25.90;63.70
27413;DHT22;14871;52.702;5.230;2022-10-16T12:40:32;25.70;63.60
27413;DHT22;14871;52.702;5.230;2022-10-16T12:42:58;26.10;63.20
27413;DHT22;14871;52.702;5.230;2022-10-16T12:45:29;26.20;63.40
27413;DHT22;14871;52.702;5.230;2022-10-16T12:47:57;26.30;62.70
27413;DHT22;14871;52.702;5.230;2022-10-16T12:52:57;26.30;64.00
27413;DHT22;14871;52.702;5.230;2022-10-16T12:55:24;26.20;63.40
27413;DHT22;14871;52.702;5.230;2022-10-16T13:00:55;26.60;63.10
27413;DHT22;14871;52.702;5.230;2022-10-16T13:06:21;26.60;63.40
27413;DHT22;14871;52.702;5.230;2022-10-16T13:15:05;27.10;62.30
27413;DHT22;14871;52.702;5.230;2022-10-16T13:23:16;27.10;63.80
27413;DHT22;14871;52.702;5.230;2022-10-16T13:26:08;27.40;61.40
27413;DHT22;14871;52.702;5.230;2022-10-16T13:28:38;27.90;58.10
27413;DHT22;14871;52.702;5.230;2022-10-16T13:31:05;27.40;59.40
27413;DHT22;14871;52.702;5.230;2022-10-16T13:33:34;27.20;59.90
27413;DHT22;14871;52.702;5.230;2022-10-16T13:36:01;27.10;60.70
27413;DHT22;14871;52.702;5.230;2022-10-16T13:38:29;27.20;59.80
27413;DHT22;14871;52.702;5.230;2022-10-16T13:41:06;27.10;59.90
27413;DHT22;14871;52.702;5.230;2022-10-16T13:43:41;27.00;59.00
27413;DHT22;14871;52.702;5.230;2022-10-16T13:46:13;27.00;59.00
27413;DHT22;14871;52.702;5.230;2022-10-16T13:48:38;27.00;58.90
27413;DHT22;14871;52.702;5.230;2022-10-16T13:51:16;26.60;59.50
27413;DHT22;14871;52.702;5.230;2022-10-16T13:53:42;26.20;61.30
27413;DHT22;14871;52.702;5.230;2022-10-16T13:56:17;26.10;61.10
27413;DHT22;14871;52.702;5.230;2022-10-16T13:58:44;25.90;62.00
27413;DHT22;14871;52.702;5.230;2022-10-16T14:01:19;25.70;61.70
27413;DHT22;14871;52.702;5.230;2022-10-16T14:03:46;25.50;60.90
27413;DHT22;14871;52.702;5.230;2022-10-16T14:06:14;25.30;62.50
27413;DHT22;14871;52.702;5.230;2022-10-16T14:08:57;24.80;63.40
27413;DHT22;14871;52.702;5.230;2022-10-16T14:11:24;24.40;65.20
27413;DHT22;14871;52.702;5.230;2022-10-16T14:13:51;24.10;66.90
27413;DHT22;14871;52.702;5.230;2022-10-16T14:16:26;23.90;67.50
27413;DHT22;14871;52.702;5.230;2022-10-16T14:18:59;23.70;68.40
27413;DHT22;14871;52.702;5.230;2022-10-16T14:21:26;23.50;69.60
27413;DHT22;14871;52.702;5.230;2022-10-16T14:23:52;23.30;70.10
27413;DHT22;14871;52.702;5.230;2022-10-16T14:26:22;23.30;70.10
27413;DHT22;14871;52.702;5.230;2022-10-16T14:28:49;23.00;70.90
27413;DHT22;14871;52.702;5.230;2022-10-16T14:31:33;22.90;71.20
27413;DHT22;14871;52.702;5.230;2022-10-16T14:33:59;22.70;72.30
27413;DHT22;14871;52.702;5.230;2022-10-16T14:36:27;22.60;72.50
27413;DHT22;14871;52.702;5.230;2022-10-16T14:39:04;22.50;73.80
27413;DHT22;14871;52.702;5.230;2022-10-16T14:41:32;22.50;73.20
27413;DHT22;14871;52.702;5.230;2022-10-16T14:44:05;22.50;73.50
27413;DHT22;14871;52.702;5.230;2022-10-16T14:46:34;22.50;73.80
27413;DHT22;14871;52.702;5.230;2022-10-16T14:49:05;22.40;73.80
27413;DHT22;14871;52.702;5.230;2022-10-16T14:51:39;22.40;74.40
27413;DHT22;14871;52.702;5.230;2022-10-16T14:54:08;22.30;74.90
27413;DHT22;14871;52.702;5.230;2022-10-16T14:56:53;22.20;75.50
27413;DHT22;14871;52.702;5.230;2022-10-16T14:59:37;22.20;76.30
27413;DHT22;14871;52.702;5.230;2022-10-16T15:02:28;22.20;76.50
27413;DHT22;14871;52.702;5.230;2022-10-16T15:04:55;22.20;76.40
27413;DHT22;14871;52.702;5.230;2022-10-16T15:07:21;22.00;76.90
27413;DHT22;14871;52.702;5.230;2022-10-16T15:09:47;21.90;76.70
27413;DHT22;14871;52.702;5.230;2022-10-16T15:12:12;21.90;76.90
27413;DHT22;14871;52.702;5.230;2022-10-16T15:14:38;21.80;77.30
27413;DHT22;14871;52.702;5.230;2022-10-16T15:17:04;21.70;77.10
27413;DHT22;14871;52.702;5.230;2022-10-16T15:19:30;21.50;78.20
27413;DHT22;14871;52.702;5.230;2022-10-16T15:21:55;21.40;78.30
27413;DHT22;14871;52.702;5.230;2022-10-16T15:24:21;21.30;78.90
27413;DHT22;14871;52.702;5.230;2022-10-16T15:26:47;21.40;79.00
27413;DHT22;14871;52.702;5.230;2022-10-16T15:29:13;21.30;79.70
27413;DHT22;14871;52.702;5.230;2022-10-16T15:31:38;21.50;80.10
27413;DHT22;14871;52.702;5.230;2022-10-16T15:34:09;21.70;78.70
27413;DHT22;14871;52.702;5.230;2022-10-16T15:36:37;21.60;79.20
27413;DHT22;14871;52.702;5.230;2022-10-16T15:39:15;21.60;79.20
27413;DHT22;14871;52.702;5.230;2022-10-16T15:41:41;21.60;78.60
27413;DHT22;14871;52.702;5.230;2022-10-16T15:44:07;21.60;78.80
27413;DHT22;14871;52.702;5.230;2022-10-16T15:46:33;21.50;78.90
27413;DHT22;14871;52.702;5.230;2022-10-16T15:49:00;21.40;79.50
27413;DHT22;14871;52.702;5.230;2022-10-16T15:51:26;21.30;80.00
27413;DHT22;14871;52.702;5.230;2022-10-16T15:53:58;21.40;80.50
27413;DHT22;14871;52.702;5.230;2022-10-16T15:56:26;21.50;80.00
27413;DHT22;14871;52.702;5.230;2022-10-16T15:58:54;21.50;82.30
27413;DHT22;14871;52.702;5.230;2022-10-16T16:01:20;21.50;83.70
27413;DHT22;14871;52.702;5.230;2022-10-16T16:03:46;21.60;83.80
27413;DHT22;14871;52.702;5.230;2022-10-16T16:06:13;21.60;83.90
27413;DHT22;14871;52.702;5.230;2022-10-16T16:08:39;21.60;83.70
27413;DHT22;14871;52.702;5.230;2022-10-16T16:11:07;21.60;83.90
27413;DHT22;14871;52.702;5.230;2022-10-16T16:13:33;21.60;83.80
27413;DHT22;14871;52.702;5.230;2022-10-16T16:15:59;21.50;84.50
27413;DHT22;14871;52.702;5.230;2022-10-16T16:18:25;21.40;84.80
27413;DHT22;14871;52.702;5.230;2022-10-16T16:20:51;21.20;85.40
27413;DHT22;14871;52.702;5.230;2022-10-16T16:23:17;21.20;85.90
27413;DHT22;14871;52.702;5.230;2022-10-16T16:25:44;21.20;85.80
27413;DHT22;14871;52.702;5.230;2022-10-16T16:28:10;21.20;86.00
27413;DHT22;14871;52.702;5.230;2022-10-16T16:30:40;21.20;86.90
27413;DHT22;14871;52.702;5.230;2022-10-16T16:33:06;21.20;87.30
27413;DHT22;14871;52.702;5.230;2022-10-16T16:35:32;21.10;87.00
27413;DHT22;14871;52.702;5.230;2022-10-16T16:37:57;21.10;87.10
27413;DHT22;14871;52.702;5.230;2022-10-16T16:40:23;21.10;87.30
27413;DHT22;14871;52.702;5.230;2022-10-16T16:42:49;21.00;87.90
27413;DHT22;14871;52.702;5.230;2022-10-16T16:45:14;20.90;88.10
27413;DHT22;14871;52.702;5.230;2022-10-16T16:47:40;20.90;88.30
27413;DHT22;14871;52.702;5.230;2022-10-16T16:50:06;20.80;88.20
27413;DHT22;14871;52.702;5.230;2022-10-16T16:52:33;20.60;88.70
27413;DHT22;14871;52.702;5.230;2022-10-16T16:54:59;20.50;90.20
27413;DHT22;14871;52.702;5.230;2022-10-16T16:57:25;20.50;90.10
27413;DHT22;14871;52.702;5.230;2022-10-16T16:59:50;20.40;90.00
27413;DHT22;14871;52.702;5.230;2022-10-16T17:02:17;20.30;90.40
27413;DHT22;14871;52.702;5.230;2022-10-16T17:04:42;20.20;90.70
27413;DHT22;14871;52.702;5.230;2022-10-16T17:07:08;20.10;91.00
27413;DHT22;14871;52.702;5.230;2022-10-16T17:09:34;20.00;91.20
27413;DHT22;14871;52.702;5.230;2022-10-16T17:12:00;20.00;91.50
27413;DHT22;14871;52.702;5.230;2022-10-16T17:14:25;20.00;91.60